createdAt,value
2023-02-12T00:00:08.818Z,34.50
2023-02-12T00:02:36.218Z,35.30
2023-02-12T00:05:03.468Z,36.55
2023-02-12T00:07:31.453Z,32.83
2023-02-12T00:09:58.411Z,35.15
2023-02-12T00:12:25.455Z,35.20
2023-02-12T00:14:52.657Z,34.80
2023-02-12T00:17:19.905Z,35.97
2023-02-12T00:19:48.427Z,34.20
2023-02-12T00:22:16.039Z,32.80
2023-02-12T00:24:43.175Z,31.40
2023-02-12T00:27:10.589Z,33.75
2023-02-12T00:29:38.530Z,33.85
2023-02-12T00:32:06.712Z,33.92
2023-02-12T00:34:35.941Z,31.70
2023-02-12T00:37:03.988Z,32.85
2023-02-12T00:39:32.481Z,34.55
2023-02-12T00:42:00.291Z,31.95
2023-02-12T00:44:27.474Z,32.95
2023-02-12T00:46:54.744Z,39.03
2023-02-12T00:49:21.974Z,33.58
2023-02-12T00:51:49.505Z,33.45
2023-02-12T00:54:16.794Z,35.25
2023-02-12T00:56:43.884Z,31.35
2023-02-12T00:59:10.838Z,33.60
2023-02-12T01:01:38.063Z,32.80
2023-02-12T01:04:05.327Z,35.78
2023-02-12T01:06:32.715Z,32.05
2023-02-12T01:09:00.102Z,33.22
2023-02-12T01:11:27.307Z,34.22
2023-02-12T01:13:54.318Z,33.90
2023-02-12T01:16:24.620Z,36.58
2023-02-12T01:18:55.630Z,35.38
2023-02-12T01:21:29.204Z,36.85
2023-02-12T01:23:57.085Z,38.55
2023-02-12T01:26:25.649Z,36.08
2023-02-12T01:28:55.251Z,35.40
2023-02-12T01:31:25.201Z,33.20
2023-02-12T01:33:54.483Z,33.22
2023-02-12T01:36:22.481Z,31.33
2023-02-12T01:38:50.671Z,34.90
2023-02-12T01:41:26.648Z,32.40
2023-02-12T01:44:15.553Z,32.53
2023-02-12T01:46:44.827Z,33.85
2023-02-12T01:49:37.723Z,35.35
2023-02-12T01:52:13.575Z,31.60
2023-02-12T01:54:41.759Z,31.27
2023-02-12T01:57:11.669Z,34.13
2023-02-12T01:59:41.868Z,36.40
2023-02-12T02:02:09.354Z,31.88
2023-02-12T02:04:48.634Z,33.20
2023-02-12T02:07:15.773Z,33.00
2023-02-12T02:09:43.487Z,33.00
2023-02-12T02:12:29.277Z,36.00
2023-02-12T02:14:59.191Z,34.08
2023-02-12T02:17:55.514Z,35.35
2023-02-12T02:20:42.815Z,35.50
2023-02-12T02:23:17.756Z,35.20
2023-02-12T02:26:26.571Z,33.95
2023-02-12T02:28:57.140Z,32.13
2023-02-12T02:31:33.179Z,31.15
2023-02-12T02:34:12.679Z,36.65
2023-02-12T02:37:00.225Z,34.72
2023-02-12T02:40:07.208Z,34.15
2023-02-12T02:42:46.438Z,32.40
2023-02-12T02:45:22.646Z,35.90
2023-02-12T02:48:09.626Z,41.63
2023-02-12T02:50:41.186Z,39.80
2023-02-12T02:53:15.838Z,35.78
2023-02-12T02:55:55.363Z,40.80
2023-02-12T02:58:58.010Z,33.85
2023-02-12T03:01:32.488Z,38.80
2023-02-12T03:04:13.923Z,37.50
2023-02-12T03:06:47.073Z,37.55
2023-02-12T03:09:32.783Z,36.45
2023-02-12T03:12:06.495Z,41.28
2023-02-12T03:14:38.890Z,36.13
2023-02-12T03:17:31.409Z,37.90
2023-02-12T03:20:07.922Z,33.13
2023-02-12T03:22:38.025Z,34.17
2023-02-12T03:25:20.604Z,33.92
2023-02-12T03:27:56.370Z,33.22
2023-02-12T03:30:30.524Z,37.15
2023-02-12T03:33:18.503Z,33.42
2023-02-12T03:36:08.005Z,34.75
2023-02-12T03:38:41.325Z,33.30
2023-02-12T03:41:17.333Z,37.45
2023-02-12T03:43:54.832Z,34.40
2023-02-12T03:46:37.193Z,32.33
2023-02-12T03:49:23.009Z,32.28
2023-02-12T03:51:50.068Z,30.05
2023-02-12T03:54:20.620Z,33.17
2023-02-12T03:57:09.134Z,31.13
2023-02-12T03:59:39.312Z,35.35
2023-02-12T04:02:07.779Z,32.92
2023-02-12T04:04:35.225Z,30.92
2023-02-12T04:07:02.659Z,30.27
2023-02-12T04:09:31.593Z,33.50
2023-02-12T04:12:10.196Z,33.45
2023-02-12T04:14:39.948Z,35.80
2023-02-12T04:17:30.209Z,29.42
2023-02-12T04:20:15.828Z,33.80
2023-02-12T04:23:04.167Z,33.03
2023-02-12T04:25:56.516Z,33.50
2023-02-12T04:28:38.974Z,28.52
2023-02-12T04:31:08.687Z,29.00
2023-02-12T04:33:44.984Z,34.38
2023-02-12T04:36:23.731Z,31.17
2023-02-12T04:38:55.768Z,32.00
2023-02-12T04:41:23.060Z,37.03
2023-02-12T04:43:50.331Z,29.33
2023-02-12T04:46:17.872Z,30.20
2023-02-12T04:48:56.933Z,27.60
2023-02-12T04:51:24.371Z,33.40
2023-02-12T04:53:51.612Z,33.58
2023-02-12T04:56:18.894Z,32.78
2023-02-12T04:58:46.088Z,34.38
2023-02-12T05:01:13.771Z,27.83
2023-02-12T05:03:41.215Z,31.75
2023-02-12T05:06:09.621Z,35.33
2023-02-12T05:08:36.750Z,35.58
2023-02-12T05:11:07.563Z,33.97
2023-02-12T05:13:34.719Z,36.28
2023-02-12T05:16:05.587Z,42.50
2023-02-12T05:18:33.678Z,36.15
2023-02-12T05:21:03.178Z,36.72
2023-02-12T05:23:32.465Z,43.53
2023-02-12T05:26:01.065Z,36.88
2023-02-12T05:28:29.378Z,35.05
2023-02-12T05:31:01.706Z,32.08
2023-02-12T05:33:29.608Z,35.45
2023-02-12T05:35:56.973Z,35.45
2023-02-12T05:38:24.406Z,37.65
2023-02-12T05:40:51.374Z,32.97
2023-02-12T05:43:18.485Z,33.53
2023-02-12T05:45:45.465Z,34.38
2023-02-12T05:48:12.471Z,41.47
2023-02-12T05:50:39.576Z,34.10
2023-02-12T05:53:06.717Z,31.45
2023-02-12T05:55:33.700Z,30.02
2023-02-12T05:58:00.749Z,33.47
2023-02-12T06:00:27.847Z,32.50
2023-02-12T06:02:54.930Z,30.58
2023-02-12T06:05:22.415Z,32.47
2023-02-12T06:07:49.410Z,30.65
2023-02-12T06:10:17.625Z,31.52
2023-02-12T06:12:44.735Z,32.00
2023-02-12T06:15:11.966Z,34.20
2023-02-12T06:17:38.825Z,29.33
2023-02-12T06:20:06.039Z,32.22
2023-02-12T06:22:33.442Z,33.63
2023-02-12T06:25:00.412Z,31.25
2023-02-12T06:27:27.657Z,32.78
2023-02-12T06:29:54.959Z,36.65
2023-02-12T06:32:22.573Z,33.55
2023-02-12T06:34:49.630Z,34.25
2023-02-12T06:37:16.793Z,33.70
2023-02-12T06:39:43.888Z,35.70
2023-02-12T06:42:10.867Z,35.58
2023-02-12T06:44:37.814Z,37.67
2023-02-12T06:47:04.847Z,38.42
2023-02-12T06:49:32.187Z,36.40
2023-02-12T06:52:01.085Z,33.97
2023-02-12T06:54:29.270Z,29.73
2023-02-12T06:56:56.317Z,36.38
2023-02-12T06:59:23.348Z,37.90
2023-02-12T07:01:50.686Z,35.70
2023-02-12T07:04:18.013Z,36.53
2023-02-12T07:06:45.413Z,37.10
2023-02-12T07:09:12.475Z,36.55
2023-02-12T07:11:39.919Z,43.47
2023-02-12T07:14:07.873Z,41.78
2023-02-12T07:16:35.068Z,42.92
2023-02-12T07:19:02.101Z,41.60
2023-02-12T07:21:29.115Z,40.85
2023-02-12T07:23:56.136Z,42.05
2023-02-12T07:26:23.600Z,40.70
2023-02-12T07:28:51.439Z,42.88
2023-02-12T07:31:23.616Z,40.53
2023-02-12T07:33:55.805Z,43.00
2023-02-12T07:36:24.068Z,37.72
2023-02-12T07:38:51.353Z,40.00
2023-02-12T07:41:24.781Z,36.67
2023-02-12T07:44:00.924Z,36.63
2023-02-12T07:46:36.734Z,38.53
2023-02-12T07:49:06.360Z,37.08
2023-02-12T07:51:35.349Z,41.70
2023-02-12T07:54:03.431Z,35.75
2023-02-12T07:56:33.640Z,39.35
2023-02-12T07:59:03.608Z,37.35
2023-02-12T08:01:33.435Z,35.80
2023-02-12T08:04:06.330Z,39.88
2023-02-12T08:06:36.640Z,39.03
2023-02-12T08:09:06.308Z,38.92
2023-02-12T08:11:33.994Z,39.22
2023-02-12T08:14:01.286Z,41.03
2023-02-12T08:16:29.523Z,44.45
2023-02-12T08:19:07.213Z,43.72
2023-02-12T08:21:41.938Z,37.65
2023-02-12T08:24:10.797Z,41.67
2023-02-12T08:26:39.485Z,39.95
2023-02-12T08:29:12.540Z,38.85
2023-02-12T08:31:45.415Z,40.65
2023-02-12T08:34:20.411Z,44.15
2023-02-12T08:36:49.027Z,40.72
2023-02-12T08:39:17.583Z,39.65
2023-02-12T08:41:45.516Z,43.38
2023-02-12T08:44:13.369Z,42.30
2023-02-12T08:46:46.766Z,41.63
2023-02-12T08:49:21.903Z,40.85
2023-02-12T08:51:51.772Z,43.03
2023-02-12T08:54:27.213Z,39.83
2023-02-12T08:56:58.561Z,44.05
2023-02-12T08:59:26.002Z,42.88
2023-02-12T09:01:54.452Z,39.90
2023-02-12T09:04:24.452Z,46.85
2023-02-12T09:06:53.154Z,44.63
2023-02-12T09:09:20.727Z,45.85
2023-02-12T09:11:48.622Z,41.95
2023-02-12T09:14:17.414Z,44.65
2023-02-12T09:16:45.136Z,42.15
2023-02-12T09:19:14.616Z,44.63
2023-02-12T09:21:42.536Z,45.17
2023-02-12T09:24:10.456Z,45.03
2023-02-12T09:26:37.650Z,42.47
2023-02-12T09:29:05.571Z,40.33
2023-02-12T09:31:33.466Z,41.03
2023-02-12T09:34:06.500Z,44.35
2023-02-12T09:36:34.090Z,41.35
2023-02-12T09:39:01.189Z,43.83
2023-02-12T09:42:02.485Z,39.30
2023-02-12T09:45:07.290Z,36.35
2023-02-12T09:47:45.894Z,35.53
2023-02-12T09:50:33.716Z,32.03
2023-02-12T09:53:01.571Z,35.03
2023-02-12T09:55:31.863Z,34.00
2023-02-12T09:58:02.371Z,32.55
2023-02-12T10:00:31.734Z,35.28
2023-02-12T10:03:05.727Z,36.22
2023-02-12T10:05:41.192Z,37.25
2023-02-12T10:08:14.074Z,34.60
2023-02-12T10:11:09.652Z,31.90
2023-02-12T10:14:00.914Z,29.92
2023-02-12T10:16:44.163Z,31.42
2023-02-12T10:19:17.759Z,29.58
2023-02-12T10:22:05.833Z,33.85
2023-02-12T10:24:32.903Z,28.55
2023-02-12T10:27:09.678Z,25.55
2023-02-12T10:29:42.572Z,28.95
2023-02-12T10:32:23.006Z,27.88
2023-02-12T10:34:51.603Z,24.70
2023-02-12T10:37:34.351Z,22.15
2023-02-12T10:40:30.095Z,20.35
2023-02-12T10:42:59.723Z,18.23
2023-02-12T10:45:40.119Z,13.50
2023-02-12T10:48:16.601Z,10.65
2023-02-12T10:50:55.695Z,11.57
2023-02-12T10:53:31.856Z,15.20
2023-02-12T10:56:25.797Z,12.52
2023-02-12T10:59:00.582Z,14.30
2023-02-12T11:01:38.349Z,18.00
2023-02-12T11:04:24.047Z,19.33
2023-02-12T11:07:01.992Z,16.35
2023-02-12T11:09:32.280Z,19.15
2023-02-12T11:11:59.829Z,17.17
2023-02-12T11:14:27.714Z,21.95
2023-02-12T11:16:57.912Z,16.67
2023-02-12T11:19:28.499Z,15.90
2023-02-12T11:22:11.351Z,15.90
2023-02-12T11:24:38.950Z,16.88
2023-02-12T11:27:32.316Z,14.55
2023-02-12T11:30:20.271Z,14.05
2023-02-12T11:32:49.514Z,12.23
2023-02-12T11:35:35.240Z,11.93
2023-02-12T11:38:03.785Z,14.52
2023-02-12T11:40:33.936Z,12.13
2023-02-12T11:43:05.864Z,10.70
2023-02-12T11:45:42.588Z,11.80
2023-02-12T11:48:23.898Z,10.98
2023-02-12T11:50:57.098Z,8.93
2023-02-12T11:53:29.486Z,12.00
2023-02-12T11:56:04.413Z,8.88
2023-02-12T11:58:31.827Z,7.30
2023-02-12T12:01:08.027Z,7.30
2023-02-12T12:03:46.548Z,6.07
2023-02-12T12:06:29.856Z,10.45
2023-02-12T12:09:27.960Z,9.48
2023-02-12T12:12:06.914Z,9.65
2023-02-12T12:15:00.284Z,12.98
2023-02-12T12:18:13.018Z,11.60
2023-02-12T12:20:47.982Z,13.88
2023-02-12T12:23:21.829Z,12.48
2023-02-12T12:25:52.834Z,12.70
2023-02-12T12:29:01.248Z,12.70
2023-02-12T12:31:37.994Z,13.50
2023-02-12T12:34:08.072Z,10.25
2023-02-12T12:36:42.843Z,12.48
2023-02-12T12:39:33.927Z,13.10
2023-02-12T12:42:31.416Z,11.60
2023-02-12T12:45:13.516Z,9.73
2023-02-12T12:48:18.025Z,9.40
2023-02-12T12:51:00.644Z,12.82
2023-02-12T12:54:05.092Z,11.32
2023-02-12T12:57:01.291Z,7.60
2023-02-12T12:59:35.519Z,8.80
2023-02-12T13:02:06.043Z,7.57
2023-02-12T13:05:02.035Z,7.70
2023-02-12T13:07:47.913Z,7.28
2023-02-12T13:10:34.649Z,9.43
2023-02-12T13:13:04.809Z,7.70
2023-02-12T13:15:41.992Z,8.70
2023-02-12T13:18:33.334Z,7.10
2023-02-12T13:21:37.755Z,9.30
2023-02-12T13:24:24.794Z,6.93
2023-02-12T13:27:01.978Z,7.38
2023-02-12T13:29:38.617Z,6.68
2023-02-12T13:32:14.575Z,6.18
2023-02-12T13:34:44.555Z,7.13
2023-02-12T13:37:22.561Z,8.25
2023-02-12T13:39:51.503Z,7.70
2023-02-12T13:42:29.747Z,8.25
2023-02-12T13:45:35.686Z,6.47
2023-02-12T13:48:39.977Z,8.82
2023-02-12T13:51:21.123Z,6.97
2023-02-12T13:54:08.705Z,9.50
2023-02-12T13:56:53.009Z,8.07
2023-02-12T13:59:32.197Z,7.40
2023-02-12T14:01:59.830Z,8.25
2023-02-12T14:04:37.835Z,7.35
2023-02-12T14:07:07.496Z,7.25
2023-02-12T14:09:42.355Z,6.57
2023-02-12T14:12:32.068Z,7.80
2023-02-12T14:15:25.797Z,6.70
2023-02-12T14:18:04.171Z,7.78
2023-02-12T14:20:31.322Z,9.38
2023-02-12T14:23:20.811Z,6.72
2023-02-12T14:26:10.970Z,6.85
2023-02-12T14:29:12.904Z,6.80
2023-02-12T14:31:40.297Z,7.95
2023-02-12T14:34:11.344Z,7.32
2023-02-12T14:36:41.762Z,6.88
2023-02-12T14:39:21.112Z,7.47
2023-02-12T14:41:55.761Z,9.02
2023-02-12T14:44:30.728Z,8.60
2023-02-12T14:47:03.060Z,7.85
2023-02-12T14:49:47.455Z,7.13
2023-02-12T14:52:14.841Z,8.18
2023-02-12T14:54:48.015Z,7.35
2023-02-12T14:57:30.556Z,6.53
2023-02-12T15:00:12.497Z,8.15
2023-02-12T15:02:41.257Z,7.28
2023-02-12T15:05:17.256Z,6.97
2023-02-12T15:07:50.608Z,7.90
2023-02-12T15:10:24.050Z,6.90
2023-02-12T15:13:23.495Z,7.05
2023-02-12T15:15:55.822Z,8.02
2023-02-12T15:18:48.288Z,8.20
2023-02-12T15:21:32.425Z,6.70
2023-02-12T15:24:14.588Z,6.33
2023-02-12T15:26:49.699Z,7.57
2023-02-12T15:29:33.169Z,6.38
2023-02-12T15:32:04.303Z,8.95
2023-02-12T15:34:34.726Z,6.95
2023-02-12T15:37:03.763Z,7.15
2023-02-12T15:39:48.081Z,6.45
2023-02-12T15:42:37.869Z,7.25
2023-02-12T15:45:10.883Z,5.55
2023-02-12T15:47:37.965Z,7.45
2023-02-12T15:50:05.487Z,6.93
2023-02-12T15:52:36.341Z,5.47
2023-02-12T15:55:05.641Z,5.53
2023-02-12T15:57:33.483Z,6.70
2023-02-12T16:00:22.487Z,6.25
2023-02-12T16:02:53.799Z,5.18
2023-02-12T16:05:21.928Z,5.47
2023-02-12T16:07:49.667Z,6.20
2023-02-12T16:10:19.216Z,5.40
2023-02-12T16:12:47.396Z,5.20
2023-02-12T16:15:43.960Z,5.68
2023-02-12T16:18:29.126Z,4.90
2023-02-12T16:23:35.593Z,5.70
2023-02-12T16:26:02.957Z,5.70
2023-02-12T16:28:32.301Z,5.78
2023-02-12T16:31:11.890Z,5.30
2023-02-12T16:33:53.188Z,7.13
2023-02-12T16:36:20.119Z,6.25
2023-02-12T16:39:02.484Z,6.68
2023-02-12T16:41:31.870Z,6.85
2023-02-12T16:44:02.330Z,7.00
2023-02-12T16:46:35.552Z,6.68
2023-02-12T16:49:03.413Z,7.90
2023-02-12T16:51:35.432Z,6.45
2023-02-12T16:54:04.943Z,7.05
2023-02-12T16:56:38.787Z,5.82
2023-02-12T16:59:07.067Z,6.83
2023-02-12T17:01:36.891Z,6.25
2023-02-12T17:04:09.453Z,7.93
2023-02-12T17:06:36.830Z,7.20
2023-02-12T17:09:04.209Z,7.45
2023-02-12T17:11:31.402Z,6.93
2023-02-12T17:13:58.743Z,7.25
2023-02-12T17:16:30.862Z,6.75
2023-02-12T17:18:59.282Z,6.95
2023-02-12T17:21:39.729Z,7.75
2023-02-12T17:24:16.799Z,11.48
2023-02-12T17:26:44.019Z,7.35
2023-02-12T17:29:11.406Z,8.07
2023-02-12T17:31:38.990Z,8.30
2023-02-12T17:34:06.448Z,9.90
2023-02-12T17:36:33.714Z,10.18
2023-02-12T17:39:03.446Z,9.27
2023-02-12T17:41:31.521Z,8.57
2023-02-12T17:43:58.779Z,7.65
2023-02-12T17:46:28.912Z,7.68
2023-02-12T17:48:56.964Z,7.93
2023-02-12T17:51:24.691Z,8.55
2023-02-12T17:53:52.184Z,8.90
2023-02-12T17:56:22.177Z,13.68
2023-02-12T17:58:49.869Z,10.70
2023-02-12T18:01:18.989Z,6.35
2023-02-12T18:03:47.639Z,5.80
2023-02-12T18:06:23.069Z,6.32
2023-02-12T18:08:50.119Z,21.85
2023-02-12T18:11:19.371Z,20.33
2023-02-12T18:13:46.989Z,13.30
2023-02-12T18:16:15.338Z,8.20
2023-02-12T18:18:42.379Z,8.82
2023-02-12T18:21:12.190Z,6.70
2023-02-12T18:23:39.803Z,6.03
2023-02-12T18:26:14.063Z,7.22
2023-02-12T18:28:41.932Z,7.35
2023-02-12T18:31:10.962Z,7.82
2023-02-12T18:33:39.289Z,7.28
2023-02-12T18:36:09.170Z,9.80
2023-02-12T18:38:38.324Z,7.95
2023-02-12T18:41:11.429Z,10.65
2023-02-12T18:43:38.971Z,17.30
2023-02-12T18:46:14.796Z,18.75
2023-02-12T18:48:43.016Z,14.75
2023-02-12T18:51:14.196Z,13.00
2023-02-12T18:53:41.299Z,13.52
2023-02-12T18:56:09.931Z,12.05
2023-02-12T18:58:37.575Z,10.82
2023-02-12T19:01:16.075Z,9.38
2023-02-12T19:03:44.908Z,8.32
2023-02-12T19:06:12.808Z,13.82
2023-02-12T19:08:40.244Z,18.08
2023-02-12T19:11:09.628Z,18.02
2023-02-12T19:13:37.142Z,16.98
2023-02-12T19:16:12.872Z,29.00
2023-02-12T19:18:40.165Z,26.00
2023-02-12T19:21:12.346Z,29.25
2023-02-12T19:23:40.441Z,26.50
2023-02-12T19:26:16.938Z,25.35
2023-02-12T19:28:44.651Z,25.45
2023-02-12T19:31:20.524Z,26.92
2023-02-12T19:33:49.252Z,23.23
2023-02-12T19:36:20.084Z,29.23
2023-02-12T19:38:48.439Z,30.88
2023-02-12T19:41:19.139Z,27.17
2023-02-12T19:43:47.006Z,28.77
2023-02-12T19:46:19.345Z,19.92
2023-02-12T19:48:47.739Z,18.45
2023-02-12T19:51:20.260Z,13.60
2023-02-12T19:53:48.726Z,13.32
2023-02-12T19:56:16.700Z,12.05
2023-02-12T19:58:44.605Z,13.68
2023-02-12T20:01:15.241Z,12.95
2023-02-12T20:03:43.648Z,15.95
2023-02-12T20:06:18.246Z,15.23
2023-02-12T20:08:45.559Z,16.40
2023-02-12T20:11:15.365Z,14.50
2023-02-12T20:13:42.966Z,17.77
2023-02-12T20:16:16.152Z,16.50
2023-02-12T20:18:48.999Z,15.63
2023-02-12T20:21:25.361Z,14.60
2023-02-12T20:23:52.449Z,15.40
2023-02-12T20:26:19.992Z,18.50
2023-02-12T20:28:48.633Z,19.50
2023-02-12T20:31:17.072Z,22.20
2023-02-12T20:33:44.723Z,18.15
2023-02-12T20:36:13.056Z,17.65
2023-02-12T20:38:42.053Z,16.58
2023-02-12T20:41:10.256Z,16.63
2023-02-12T20:43:38.399Z,19.95
2023-02-12T20:46:13.431Z,20.45
2023-02-12T20:48:40.771Z,22.13
2023-02-12T20:51:10.533Z,26.52
2023-02-12T20:53:38.167Z,24.20
2023-02-12T20:56:16.781Z,21.40
2023-02-12T20:58:45.026Z,26.15
2023-02-12T21:01:14.902Z,22.75
2023-02-12T21:03:42.017Z,23.10
2023-02-12T21:06:10.064Z,20.60
2023-02-12T21:08:38.020Z,22.40
2023-02-12T21:11:09.655Z,19.95
2023-02-12T21:13:39.290Z,23.45
2023-02-12T21:16:11.148Z,20.98
2023-02-12T21:18:39.076Z,20.92
2023-02-12T21:21:10.065Z,20.17
2023-02-12T21:23:37.616Z,18.42
2023-02-12T21:26:06.890Z,20.73
2023-02-12T21:28:34.554Z,28.27
2023-02-12T21:31:18.823Z,29.33
2023-02-12T21:33:48.234Z,34.97
2023-02-12T21:36:17.594Z,37.65
2023-02-12T21:38:47.175Z,32.22
2023-02-12T21:41:19.727Z,46.90
2023-02-12T21:43:52.313Z,45.05
2023-02-12T21:46:21.751Z,49.85
2023-02-12T21:48:49.809Z,43.47
2023-02-12T21:51:23.070Z,43.97
2023-02-12T21:53:54.834Z,35.72
2023-02-12T21:56:22.902Z,33.95
2023-02-12T21:58:50.787Z,30.48
2023-02-12T22:01:23.050Z,23.35
2023-02-12T22:03:52.272Z,27.15
2023-02-12T22:06:22.918Z,28.98
2023-02-12T22:08:50.849Z,29.73
2023-02-12T22:11:18.781Z,28.75
2023-02-12T22:13:46.128Z,31.38
2023-02-12T22:16:16.962Z,27.92
2023-02-12T22:18:45.703Z,26.02
2023-02-12T22:21:14.406Z,27.58
2023-02-12T22:23:42.270Z,26.25
2023-02-12T22:26:19.033Z,26.30
2023-02-12T22:28:49.265Z,26.20
2023-02-12T22:31:19.705Z,26.40
2023-02-12T22:33:48.109Z,25.23
2023-02-12T22:36:15.232Z,24.88
2023-02-12T22:38:42.263Z,24.10
2023-02-12T22:41:09.970Z,23.73
2023-02-12T22:43:39.019Z,26.75
2023-02-12T22:46:07.790Z,27.52
2023-02-12T22:48:35.514Z,28.15
2023-02-12T22:51:20.473Z,27.35
2023-02-12T22:53:47.539Z,29.17
2023-02-12T22:56:15.222Z,28.77
2023-02-12T22:58:42.822Z,28.48
2023-02-12T23:01:16.217Z,26.42
2023-02-12T23:03:45.741Z,27.40
2023-02-12T23:06:18.558Z,26.92
2023-02-12T23:08:50.812Z,27.50
2023-02-12T23:11:18.392Z,26.67
2023-02-12T23:13:45.619Z,27.17
2023-02-12T23:16:12.887Z,27.10
2023-02-12T23:18:39.927Z,26.05
2023-02-12T23:21:06.991Z,28.63
2023-02-12T23:23:34.116Z,27.33
2023-02-12T23:26:01.521Z,26.67
2023-02-12T23:28:29.715Z,26.45
2023-02-12T23:30:57.941Z,27.40
2023-02-12T23:33:25.195Z,28.10
2023-02-12T23:35:52.124Z,28.70
2023-02-12T23:38:19.233Z,31.90
2023-02-12T23:40:47.980Z,27.50
2023-02-12T23:43:15.415Z,58.53
2023-02-12T23:45:44.428Z,50.13
2023-02-12T23:48:12.041Z,41.22
2023-02-12T23:50:39.494Z,38.40
2023-02-12T23:53:06.908Z,36.33
2023-02-12T23:55:37.097Z,32.42
2023-02-12T23:58:05.906Z,29.52
